Dothan, Alabama
Current Conditions -  °F | °C
As of 7:53 AM on Wednesday 28 Jan 2015 (Local Time) from KDHN Reporting Station
Clear Clear  
Wind Chill: 32°   Ceiling: Unl
Heat Index: 37°   Visibility: 10mi
Dew Point: 31°   Wind: 6mph
Humidity: 79%   Direction: 350°N
Pressure: 30.3"   Gusts: NA
Location:  31.22°N, 85.39°W
Report Text: KDHN 281353Z 35005KT 10SM CLR 03/M01 A3030 RMK AO2 SLP263 T00281006
Loading
Personal Weather Stations






























Interactive Weather Map New forecast layout! Learn more

10-Day Weather Forecast

Advertisements
Track Severe Weather on mobile